• Join FlightAware (Why Join?)
  • Login
  • US Flag 
04:12PM EDT


 

Airport Tracker/Info


-or-


 

Live Flight TrackerFlight Track Log ✈ UAE788 ✈ 09-May-2013 ✈ DIAP / ABJ - DGAA / ACC

Flight Track Log - Related Links

Times and Time Zones

All times are in EDT time to prevent confusion due to time zone crossing. See the UAE788 flight status page for this flight to view local times or setup timezone preferences in your user account.

Time Position Orientation Groundspeed Altitude Reporting Facility
EDT Latitude Longitude Course Direction KTS MPH feet Rate Location/Type
11:43AM 5.2987 -3.5584 84° East  Level FlightAware Approximate
11:44AM 5.3049 -3.4971 84° East  Level FlightAware Approximate
11:45AM 5.3111 -3.4358 84° East  Level FlightAware Approximate
11:46AM 5.3173 -3.3745 84° East  Level FlightAware Approximate
11:47AM 5.3235 -3.3132 84° East  Level FlightAware Approximate
11:48AM 5.3296 -3.2519 84° East  Level FlightAware Approximate
11:49AM 5.3358 -3.1905 84° East  Level FlightAware Approximate
11:50AM 5.3420 -3.1292 84° East  Level FlightAware Approximate
11:51AM 5.3481 -3.0679 84° East  Level FlightAware Approximate
11:52AM 5.3543 -3.0066 84° East  Level FlightAware Approximate
11:53AM 5.3604 -2.9453 84° East  Level FlightAware Approximate
11:54AM 5.3666 -2.8839 84° East  Level FlightAware Approximate
11:55AM 5.3727 -2.8226 84° East  Level FlightAware Approximate
11:56AM 5.3788 -2.7613 84° East  Level FlightAware Approximate
11:57AM 5.3850 -2.6999 84° East  Level FlightAware Approximate
11:58AM 5.3911 -2.6386 84° East  Level FlightAware Approximate
11:59AM 5.3972 -2.5773 84° East  Level FlightAware Approximate
12:00PM 5.4033 -2.5159 84° East  Level FlightAware Approximate
12:01PM 5.4094 -2.4546 84° East  Level FlightAware Approximate
12:02PM 5.4155 -2.3933 84° East  Level FlightAware Approximate
12:03PM 5.4215 -2.3319 84° East  Level FlightAware Approximate
12:04PM 5.4276 -2.2706 84° East  Level FlightAware Approximate
12:05PM 5.4337 -2.2093 84° East  Level FlightAware Approximate
12:06PM 5.4398 -2.1479 84° East  Level FlightAware Approximate
12:07PM 5.4458 -2.0866 84° East  Level FlightAware Approximate
12:08PM 5.4519 -2.0252 84° East  Level FlightAware Approximate
12:09PM 5.4579 -1.9639 84° East  Level FlightAware Approximate
12:10PM 5.4640 -1.9025 84° East  Level FlightAware Approximate
12:11PM 5.4700 -1.8412 84° East  Level FlightAware Approximate
12:12PM 5.4760 -1.7799 84° East  Level FlightAware Approximate
12:13PM 5.4820 -1.7185 84° East  Level FlightAware Approximate
12:14PM 5.4881 -1.6572 84° East  Level FlightAware Approximate
12:15PM 5.4941 -1.5958 84° East  Level FlightAware Approximate
12:16PM 5.5001 -1.5345 84° East  Level FlightAware Approximate
12:17PM 5.5061 -1.4731 84° East  Level FlightAware Approximate
12:18PM 5.5121 -1.4117 84° East  Level FlightAware Approximate
12:19PM 5.5180 -1.3504 84° East  Level FlightAware Approximate
12:20PM 5.5240 -1.2890 84° East  Level FlightAware Approximate
12:21PM 5.5300 -1.2277 84° East  Level FlightAware Approximate
12:22PM 5.5344 -1.1662 85° East  Level Estimated
12:23PM 5.5388 -1.1047 85° East  Level Estimated
12:24PM 5.5432 -1.0432 85° East  Level Estimated
12:25PM 5.5476 -0.9817 85° East  Level Estimated
12:26PM 5.5520 -0.9202 85° East  Level Estimated
12:27PM 5.5564 -0.8587 85° East  Level Estimated
12:28PM 5.5607 -0.7972 85° East  Level Estimated
12:29PM 5.5651 -0.7357 85° East  Level Estimated
12:30PM 5.5695 -0.6742 85° East  Level Estimated
12:31PM 5.5738 -0.6127 85° East  Level Estimated
12:32PM 5.5782 -0.5512 85° East  Level Estimated
12:33PM 5.5825 -0.4897 85° East  Level Estimated
12:34PM 5.5868 -0.4282 85° East  Level Estimated
12:35PM 5.5907 -0.3728 85° East  Level Estimated